createdAt,value
2022-11-03T00:01:10.773Z,99273.63
2022-11-03T00:04:15.996Z,99270.44
2022-11-03T00:07:21.411Z,99265.41
2022-11-03T00:10:24.222Z,99268.09
2022-11-03T00:13:27.027Z,99274.59
2022-11-03T00:16:29.867Z,99287.78
2022-11-03T00:19:33.936Z,99277.44
2022-11-03T00:22:36.724Z,99280.22
2022-11-03T00:25:39.484Z,99279.25
2022-11-03T00:28:42.845Z,99277.72
2022-11-03T00:31:46.297Z,99283.91
2022-11-03T00:34:50.462Z,99287.75
2022-11-03T00:37:53.211Z,99273.69
2022-11-03T00:40:56.092Z,99279.03
2022-11-03T00:43:58.910Z,99280.88
2022-11-03T00:47:01.683Z,99276.69
2022-11-03T00:50:06.206Z,99267.00
2022-11-03T00:53:09.062Z,99275.19
2022-11-03T00:56:14.176Z,99278.69
2022-11-03T00:59:16.924Z,99286.00
2022-11-03T01:02:19.761Z,99285.34
2022-11-03T01:05:41.570Z,99285.50
2022-11-03T01:08:44.330Z,99276.94
2022-11-03T01:11:51.751Z,99276.13
2022-11-03T01:14:54.841Z,99282.47
2022-11-03T01:17:58.200Z,99282.78
2022-11-03T01:21:02.354Z,99285.28
2022-11-03T01:24:05.791Z,99290.97
2022-11-03T01:27:08.841Z,99280.28
2022-11-03T01:30:12.176Z,99282.22
2022-11-03T01:33:15.113Z,99282.22
2022-11-03T01:36:19.641Z,99282.38
2022-11-03T01:39:22.432Z,99279.53
2022-11-03T01:42:25.214Z,99284.22
2022-11-03T01:45:28.022Z,99298.41
2022-11-03T01:48:31.677Z,99297.75
2022-11-03T01:51:37.793Z,99297.75
2022-11-03T01:54:42.326Z,99297.75
2022-11-03T01:57:48.892Z,99296.06
2022-11-03T02:00:53.537Z,99305.91
2022-11-03T02:03:58.669Z,99304.91
2022-11-03T02:07:08.191Z,99302.53
2022-11-03T02:10:11.434Z,99299.88
2022-11-03T02:13:18.821Z,99305.22
2022-11-03T02:16:22.133Z,99304.53
2022-11-03T02:19:28.966Z,99302.88
2022-11-03T02:22:39.861Z,99312.72
2022-11-03T02:25:45.195Z,99311.88
2022-11-03T02:28:48.036Z,99318.34
2022-11-03T02:31:52.302Z,99325.34
2022-11-03T02:34:59.171Z,99320.19
2022-11-03T02:38:04.417Z,99320.50
2022-11-03T02:41:09.698Z,99324.00
2022-11-03T02:44:14.777Z,99325.69
2022-11-03T02:47:18.705Z,99327.81
2022-11-03T02:50:22.458Z,99328.69
2022-11-03T02:53:26.556Z,99329.50
2022-11-03T02:56:32.266Z,99326.00
2022-11-03T02:59:39.015Z,99325.13
2022-11-03T03:02:45.526Z,99321.34
2022-11-03T03:05:50.449Z,99334.00
2022-11-03T03:08:55.622Z,99327.97
2022-11-03T03:12:00.764Z,99324.47
2022-11-03T03:15:05.278Z,99319.97
2022-11-03T03:18:12.378Z,99330.81
2022-11-03T03:21:18.218Z,99329.81
2022-11-03T03:24:24.470Z,99328.13
2022-11-03T03:27:29.897Z,99324.63
2022-11-03T03:30:34.240Z,99322.94
2022-11-03T03:33:39.775Z,99325.78
2022-11-03T03:36:46.979Z,99322.13
2022-11-03T03:39:52.424Z,99324.78
2022-11-03T03:42:57.862Z,99327.13
2022-11-03T03:46:03.361Z,99311.88
2022-11-03T03:49:06.286Z,99319.41
2022-11-03T03:52:10.484Z,99322.03
2022-11-03T03:55:17.054Z,99322.53
2022-11-03T03:58:21.299Z,99327.09
2022-11-03T04:01:24.208Z,99313.09
2022-11-03T04:04:27.101Z,99319.81
2022-11-03T04:07:48.297Z,99322.69
2022-11-03T04:11:04.955Z,99319.69
2022-11-03T04:14:26.899Z,99326.56
2022-11-03T04:21:11.403Z,99327.94
2022-11-03T04:24:14.223Z,99334.00
2022-11-03T04:27:28.297Z,99336.34
2022-11-03T04:30:32.455Z,99346.69
2022-11-03T04:33:35.246Z,99339.53
2022-11-03T04:36:37.952Z,99339.38
2022-11-03T04:39:40.974Z,99336.38
2022-11-03T04:42:44.242Z,99342.72
2022-11-03T04:45:48.859Z,99341.72
2022-11-03T04:48:51.608Z,99350.44
2022-11-03T04:51:54.376Z,99350.09
2022-11-03T04:54:57.137Z,99349.91
2022-11-03T04:58:01.428Z,99353.56
2022-11-03T05:01:05.957Z,99358.38
2022-11-03T05:04:13.037Z,99357.56
2022-11-03T05:07:23.833Z,99355.22
2022-11-03T05:10:27.580Z,99359.56
2022-11-03T05:13:30.378Z,99363.53
2022-11-03T05:16:35.742Z,99362.88
2022-11-03T05:19:41.239Z,99366.69
2022-11-03T05:22:44.023Z,99369.00
2022-11-03T05:25:48.829Z,99362.16
2022-11-03T05:28:53.363Z,99371.13
2022-11-03T05:31:58.303Z,99373.13
2022-11-03T05:35:01.366Z,99376.97
2022-11-03T05:38:05.427Z,99378.97
2022-11-03T05:41:15.805Z,99376.31
2022-11-03T05:44:30.110Z,99380.28
2022-11-03T05:47:37.470Z,99383.78
2022-11-03T05:50:41.042Z,99385.91
2022-11-03T05:53:43.906Z,99384.41
2022-11-03T05:56:46.672Z,99388.91
2022-11-03T05:59:51.197Z,99388.22
2022-11-03T06:02:58.304Z,99387.53
2022-11-03T06:06:01.385Z,99382.69
2022-11-03T06:09:05.197Z,99386.34
2022-11-03T06:12:13.050Z,99397.88
2022-11-03T06:15:23.329Z,99396.31
2022-11-03T06:18:31.201Z,99397.16
2022-11-03T06:21:33.937Z,99398.31
2022-11-03T06:24:36.724Z,99397.31
2022-11-03T06:27:39.834Z,99408.50
2022-11-03T06:33:52.603Z,99401.56
2022-11-03T06:36:57.130Z,99400.56
2022-11-03T06:40:01.427Z,99398.06
2022-11-03T06:43:15.336Z,99387.53
2022-11-03T06:46:20.234Z,99399.38
2022-11-03T06:49:28.571Z,99407.41
2022-11-03T06:52:32.585Z,99408.75
2022-11-03T06:55:35.878Z,99408.91
2022-11-03T06:58:38.648Z,99397.22
2022-11-03T07:01:41.590Z,99395.50
2022-11-03T07:04:45.778Z,99393.19
2022-11-03T07:07:49.063Z,99395.72
2022-11-03T07:10:52.433Z,99393.25
2022-11-03T07:13:57.741Z,99398.75
2022-11-03T07:17:02.129Z,99393.88
2022-11-03T07:20:14.313Z,99390.06
2022-11-03T07:23:19.603Z,99390.06
2022-11-03T07:26:22.369Z,99399.22
2022-11-03T07:29:28.167Z,99396.41
2022-11-03T07:32:32.609Z,99398.22
2022-11-03T07:36:08.452Z,99403.25
2022-11-03T07:39:02.849Z,99400.59
2022-11-03T07:42:13.039Z,99399.75
2022-11-03T07:45:32.877Z,99398.59
2022-11-03T07:48:38.015Z,99400.28
2022-11-03T07:51:42.580Z,99403.25
2022-11-03T07:54:45.677Z,99399.75
2022-11-03T07:57:48.665Z,99397.91
2022-11-03T08:00:57.601Z,99410.97
2022-11-03T08:04:02.809Z,99411.34
2022-11-03T08:07:06.928Z,99403.94
2022-11-03T08:10:10.276Z,99415.22
2022-11-03T08:13:13.078Z,99405.94
2022-11-03T08:16:15.869Z,99409.44
2022-11-03T08:19:18.649Z,99406.44
2022-11-03T08:22:25.910Z,99413.78
2022-11-03T08:25:28.714Z,99409.13
2022-11-03T08:28:31.964Z,99401.28
2022-11-03T08:31:34.712Z,99403.78
2022-11-03T08:34:38.168Z,99395.75
2022-11-03T08:37:42.266Z,99387.44
2022-11-03T08:40:45.037Z,99392.25
2022-11-03T08:43:47.802Z,99392.25
2022-11-03T08:46:50.556Z,99391.13
2022-11-03T08:49:53.276Z,99395.47
2022-11-03T08:52:57.446Z,99384.94
2022-11-03T08:56:00.136Z,99386.63
2022-11-03T08:59:03.376Z,99382.69
2022-11-03T09:02:06.198Z,99394.34
2022-11-03T09:05:09.275Z,99392.25
2022-11-03T09:11:36.128Z,99392.69
2022-11-03T09:14:38.809Z,99396.72
2022-11-03T09:17:44.768Z,99395.34
2022-11-03T09:20:48.510Z,99388.50
2022-11-03T09:23:52.644Z,99394.69
2022-11-03T09:27:01.003Z,99397.53
2022-11-03T09:30:14.102Z,99402.84
2022-11-03T09:33:17.358Z,99395.31
2022-11-03T09:36:20.307Z,99389.66
2022-11-03T09:39:24.919Z,99388.28
2022-11-03T09:42:27.854Z,99381.94
2022-11-03T09:45:30.796Z,99384.94
2022-11-03T09:48:33.997Z,99390.97
2022-11-03T09:51:37.902Z,99388.78
2022-11-03T09:54:42.128Z,99387.81
2022-11-03T09:57:45.150Z,99375.84
2022-11-03T10:00:51.240Z,99373.38
2022-11-03T10:03:56.504Z,99378.31
2022-11-03T10:07:00.030Z,99368.16
2022-11-03T10:10:04.289Z,99370.84
2022-11-03T10:13:09.623Z,99366.59
2022-11-03T10:16:16.288Z,99362.44
2022-11-03T10:19:20.359Z,99366.72
2022-11-03T10:22:23.756Z,99365.50
2022-11-03T10:25:34.844Z,99366.56
2022-11-03T10:28:37.903Z,99359.72
2022-11-03T10:31:41.381Z,99355.44
2022-11-03T10:34:44.482Z,99350.47
2022-11-03T10:37:47.202Z,99358.31
2022-11-03T10:40:51.551Z,99355.66
2022-11-03T10:44:01.577Z,99358.50
2022-11-03T10:47:05.494Z,99349.09
2022-11-03T10:50:21.914Z,99359.47
2022-11-03T10:56:34.083Z,99353.59
2022-11-03T10:59:38.214Z,99352.41
2022-11-03T11:02:42.698Z,99352.41
2022-11-03T11:05:46.231Z,99349.72
2022-11-03T11:08:49.821Z,99352.06
2022-11-03T11:12:10.184Z,99354.50
2022-11-03T11:15:27.846Z,99350.50
2022-11-03T11:18:49.446Z,99352.72
2022-11-03T11:22:01.259Z,99339.13
2022-11-03T11:25:04.221Z,99339.28
2022-11-03T11:28:13.270Z,99340.81
2022-11-03T11:31:30.041Z,99341.69
2022-11-03T11:34:41.730Z,99340.94
2022-11-03T11:37:45.954Z,99337.75
2022-11-03T11:40:51.802Z,99331.13
2022-11-03T11:43:54.657Z,99328.13
2022-11-03T11:46:58.423Z,99321.75
2022-11-03T11:50:34.362Z,99321.41
2022-11-03T11:53:40.876Z,99317.78
2022-11-03T11:56:45.288Z,99307.38
2022-11-03T11:59:48.235Z,99311.59
2022-11-03T12:02:51.470Z,99305.63
2022-11-03T12:05:55.422Z,99306.59
2022-11-03T12:09:06.840Z,99301.94
2022-11-03T12:12:09.588Z,99306.25
2022-11-03T12:15:30.867Z,99303.78
2022-11-03T12:18:39.139Z,99297.50
2022-11-03T12:21:46.407Z,99301.91
2022-11-03T12:24:51.946Z,99299.91
2022-11-03T12:27:54.666Z,99304.59
2022-11-03T12:30:57.519Z,99297.28
2022-11-03T12:34:00.334Z,99298.97
2022-11-03T12:37:03.004Z,99307.59
2022-11-03T12:40:08.272Z,99298.91
2022-11-03T12:43:11.027Z,99301.91
2022-11-03T12:46:13.850Z,99298.25
2022-11-03T12:49:16.595Z,99301.13
2022-11-03T12:52:19.287Z,99304.25
2022-11-03T12:55:23.447Z,99295.22
2022-11-03T12:58:26.729Z,99301.78
2022-11-03T13:01:30.037Z,99307.25
2022-11-03T13:04:32.998Z,99302.19
2022-11-03T13:07:35.764Z,99303.88
2022-11-03T13:10:40.792Z,99305.41
2022-11-03T13:13:43.547Z,99305.44
2022-11-03T13:16:46.365Z,99304.22
2022-11-03T13:19:54.379Z,99312.16
2022-11-03T13:22:57.465Z,99311.16
2022-11-03T13:26:01.626Z,99315.00
2022-11-03T13:29:04.404Z,99316.09
2022-11-03T13:32:07.834Z,99315.53
2022-11-03T13:35:13.643Z,99309.88
2022-11-03T13:38:16.941Z,99314.94
2022-11-03T13:41:21.072Z,99309.16
2022-11-03T13:44:23.850Z,99306.03
2022-11-03T13:47:42.017Z,99306.69
2022-11-03T13:50:51.005Z,99304.03
2022-11-03T14:00:40.856Z,99301.53
2022-11-03T14:07:06.424Z,99311.34
2022-11-03T14:10:09.455Z,99313.69
2022-11-03T14:13:13.824Z,99316.88
2022-11-03T14:16:16.697Z,99310.00
2022-11-03T14:19:19.598Z,99313.84
2022-11-03T14:22:22.769Z,99309.41
2022-11-03T14:25:34.890Z,99312.34
2022-11-03T14:28:39.044Z,99315.69
2022-11-03T14:31:41.787Z,99320.84
2022-11-03T14:34:45.478Z,99317.03
2022-11-03T14:37:49.052Z,99317.09
2022-11-03T14:41:09.191Z,99316.06
2022-11-03T14:44:13.402Z,99318.56
2022-11-03T14:47:17.743Z,99327.28
2022-11-03T14:50:20.540Z,99326.28
2022-11-03T14:53:23.493Z,99328.41
2022-11-03T14:56:26.622Z,99320.78
2022-11-03T14:59:30.811Z,99316.44
2022-11-03T15:02:33.643Z,99324.44
2022-11-03T15:05:45.426Z,99324.22
2022-11-03T15:08:50.859Z,99320.56
2022-11-03T15:11:57.929Z,99328.91
2022-11-03T15:15:02.057Z,99325.06
2022-11-03T15:18:05.003Z,99334.59
2022-11-03T15:21:07.854Z,99327.34
2022-11-03T15:27:35.151Z,99328.19
2022-11-03T15:30:39.284Z,99320.50
2022-11-03T15:33:42.047Z,99328.28
2022-11-03T15:36:45.304Z,99323.41
2022-11-03T15:39:48.126Z,99328.44
2022-11-03T15:42:50.995Z,99322.41
2022-11-03T15:45:55.198Z,99328.34
2022-11-03T15:48:58.073Z,99321.50
2022-11-03T15:52:00.936Z,99321.56
2022-11-03T15:55:04.255Z,99322.22
2022-11-03T15:58:07.219Z,99322.34
2022-11-03T16:01:11.791Z,99330.47
2022-11-03T16:04:16.270Z,99327.34
2022-11-03T16:07:20.084Z,99326.75
2022-11-03T16:10:22.863Z,99336.22
2022-11-03T16:13:25.781Z,99329.63
2022-11-03T16:16:29.974Z,99326.63
2022-11-03T16:19:32.795Z,99337.56
2022-11-03T16:22:35.544Z,99332.59
2022-11-03T16:25:38.763Z,99329.41
2022-11-03T16:28:45.510Z,99329.47
2022-11-03T16:31:50.955Z,99335.72
2022-11-03T16:34:54.037Z,99328.88
2022-11-03T16:37:56.893Z,99336.22
2022-11-03T16:40:59.620Z,99328.63
2022-11-03T16:44:02.473Z,99329.78
2022-11-03T16:47:06.851Z,99328.78
2022-11-03T16:50:09.692Z,99326.38
2022-11-03T16:53:13.517Z,99326.63
2022-11-03T16:56:16.353Z,99323.94
2022-11-03T16:59:19.288Z,99318.63
2022-11-03T17:02:24.060Z,99331.38
2022-11-03T17:05:27.008Z,99313.44
2022-11-03T17:08:51.811Z,99323.03
2022-11-03T17:11:52.676Z,99327.41
2022-11-03T17:14:56.779Z,99310.38
2022-11-03T17:18:01.289Z,99313.59
2022-11-03T17:21:04.034Z,99313.38
2022-11-03T17:24:07.200Z,99315.06
2022-11-03T17:27:14.595Z,99307.66
2022-11-03T17:30:20.110Z,99314.53
2022-11-03T17:33:24.257Z,99307.66
2022-11-03T17:36:29.479Z,99309.72
2022-11-03T17:39:34.394Z,99313.53
2022-11-03T17:42:38.318Z,99314.34
2022-11-03T17:45:43.331Z,99312.22
2022-11-03T17:48:49.771Z,99311.09
2022-11-03T17:51:54.147Z,99304.22
2022-11-03T17:54:59.585Z,99301.88
2022-11-03T17:58:05.137Z,99296.31
2022-11-03T18:01:09.666Z,99294.34
2022-11-03T18:07:25.413Z,99294.59
2022-11-03T18:10:29.546Z,99292.91
2022-11-03T18:13:34.423Z,99288.72
2022-11-03T18:16:37.482Z,99287.19
2022-11-03T18:19:42.056Z,99285.41
2022-11-03T18:22:45.251Z,99287.31
2022-11-03T18:25:48.241Z,99284.78
2022-11-03T18:28:51.431Z,99281.13
2022-11-03T18:31:59.757Z,99284.13
2022-11-03T18:35:04.236Z,99288.63
2022-11-03T18:38:10.611Z,99278.63
2022-11-03T18:41:35.970Z,99286.56
2022-11-03T18:44:38.713Z,99285.25
2022-11-03T18:47:41.681Z,99284.78
2022-11-03T18:50:46.417Z,99278.84
2022-11-03T18:53:49.252Z,99281.13
2022-11-03T18:56:53.287Z,99280.75
2022-11-03T18:59:56.469Z,99283.34
2022-11-03T19:02:59.252Z,99290.75
2022-11-03T19:06:03.842Z,99290.75
2022-11-03T19:09:06.691Z,99288.84
2022-11-03T19:12:10.639Z,99294.72
2022-11-03T19:15:18.922Z,99291.59
2022-11-03T19:18:21.839Z,99283.56
2022-11-03T19:21:26.134Z,99285.34
2022-11-03T19:24:28.901Z,99292.63
2022-11-03T19:27:33.920Z,99291.97
2022-11-03T19:30:36.807Z,99284.56
2022-11-03T19:33:40.089Z,99291.22
2022-11-03T19:36:45.182Z,99290.69
2022-11-03T19:39:48.558Z,99287.19
2022-11-03T19:42:51.482Z,99286.50
2022-11-03T19:45:54.666Z,99284.69
2022-11-03T19:48:58.133Z,99286.97
2022-11-03T19:52:02.314Z,99285.13
2022-11-03T19:55:06.718Z,99287.47
2022-11-03T19:58:14.260Z,99280.63
2022-11-03T20:01:17.200Z,99281.00
2022-11-03T20:04:20.087Z,99279.19
2022-11-03T20:07:30.960Z,99279.97
2022-11-03T20:10:36.125Z,99279.56
2022-11-03T20:13:41.808Z,99274.56
2022-11-03T20:16:44.849Z,99282.56
2022-11-03T20:19:47.640Z,99277.84
2022-11-03T20:22:53.955Z,99281.69
2022-11-03T20:25:56.844Z,99283.16
2022-11-03T20:29:00.100Z,99275.47
2022-11-03T20:32:03.137Z,99285.91
2022-11-03T20:35:06.959Z,99280.25
2022-11-03T20:38:12.314Z,99288.47
2022-11-03T20:41:16.055Z,99286.19
2022-11-03T20:44:18.884Z,99284.69
2022-11-03T20:47:21.690Z,99279.19
2022-11-03T20:50:25.350Z,99284.69
2022-11-03T20:53:29.590Z,99280.50
2022-11-03T20:56:32.430Z,99278.69
2022-11-03T20:59:38.626Z,99284.84
2022-11-03T21:02:41.914Z,99276.53
2022-11-03T21:05:45.104Z,99272.72
2022-11-03T21:08:49.443Z,99276.47
2022-11-03T21:11:53.372Z,99278.97
2022-11-03T21:15:13.662Z,99277.13
2022-11-03T21:18:34.679Z,99274.94
2022-11-03T21:21:37.498Z,99277.75
2022-11-03T21:24:43.391Z,99276.78
2022-11-03T21:27:47.603Z,99282.47
2022-11-03T21:30:51.149Z,99279.97
2022-11-03T21:33:54.017Z,99281.41
2022-11-03T21:36:56.819Z,99281.63
2022-11-03T21:40:00.966Z,99275.41
2022-11-03T21:43:21.558Z,99280.56
2022-11-03T21:46:24.320Z,99275.06
2022-11-03T21:49:45.629Z,99272.72
2022-11-03T21:52:48.403Z,99271.06
2022-11-03T21:55:53.687Z,99270.75
2022-11-03T21:58:56.448Z,99262.38
2022-11-03T22:01:59.295Z,99266.72
2022-11-03T22:05:05.364Z,99264.88
2022-11-03T22:08:10.956Z,99263.66
2022-11-03T22:11:23.986Z,99257.03
2022-11-03T22:14:47.655Z,99259.00
2022-11-03T22:17:49.467Z,99259.16
2022-11-03T22:21:09.635Z,99257.34
2022-11-03T22:24:30.121Z,99261.72
2022-11-03T22:27:34.623Z,99259.16
2022-11-03T22:30:57.491Z,99250.16
2022-11-03T22:34:18.129Z,99260.06
2022-11-03T22:37:20.907Z,99255.63
2022-11-03T22:40:41.101Z,99254.63
2022-11-03T22:44:02.909Z,99258.66
2022-11-03T22:47:08.180Z,99253.38
2022-11-03T22:50:11.465Z,99265.34
2022-11-03T22:53:31.699Z,99266.84
2022-11-03T22:56:34.466Z,99263.22
2022-11-03T22:59:38.587Z,99261.38
2022-11-03T23:02:41.370Z,99268.34
2022-11-03T23:05:44.154Z,99270.00
2022-11-03T23:08:47.536Z,99265.72
2022-11-03T23:11:50.338Z,99265.34
2022-11-03T23:15:12.199Z,99260.75
2022-11-03T23:18:32.679Z,99265.50
2022-11-03T23:21:35.951Z,99263.38
2022-11-03T23:24:56.114Z,99260.00
2022-11-03T23:27:58.861Z,99266.72
2022-11-03T23:31:03.026Z,99266.88
2022-11-03T23:34:06.086Z,99270.22
2022-11-03T23:37:08.861Z,99263.06
2022-11-03T23:40:15.860Z,99274.56
2022-11-03T23:43:21.600Z,99273.72
2022-11-03T23:46:44.567Z,99275.56
2022-11-03T23:49:47.341Z,99276.78
2022-11-03T23:52:50.245Z,99281.00
2022-11-03T23:56:06.929Z,99282.16
2022-11-03T23:59:10.669Z,99274.97
